createdAt,value
2022-12-14T00:00:13.653Z,14.4
2022-12-14T00:01:15.856Z,14.3
2022-12-14T00:02:18.187Z,14.4
2022-12-14T00:03:20.565Z,14.3
2022-12-14T00:04:23.597Z,14.5
2022-12-14T00:05:26.072Z,14.3
2022-12-14T00:06:28.279Z,14.4
2022-12-14T00:07:30.515Z,14.4
2022-12-14T00:09:38.013Z,14.5
2022-12-14T00:10:39.929Z,14.4
2022-12-14T00:11:42.408Z,14.5
2022-12-14T00:12:44.889Z,14.5
2022-12-14T00:14:52.130Z,14.4
2022-12-14T00:15:54.747Z,14.5
2022-12-14T00:16:57.363Z,14.4
2022-12-14T00:17:59.853Z,14.5
2022-12-14T00:19:02.349Z,14.6
2022-12-14T00:20:04.541Z,14.5
2022-12-14T00:21:07.025Z,14.6
2022-12-14T00:22:09.226Z,14.4
2022-12-14T00:23:11.717Z,14.6
2022-12-14T00:24:13.925Z,14.6
2022-12-14T00:25:16.531Z,14.6
2022-12-14T00:26:18.738Z,14.5
2022-12-14T00:27:20.675Z,14.6
2022-12-14T00:28:22.887Z,14.5
2022-12-14T00:29:26.686Z,14.5
2022-12-14T00:30:28.603Z,14.5
2022-12-14T00:31:30.921Z,14.6
2022-12-14T00:32:34.076Z,14.7
2022-12-14T00:33:36.272Z,14.6
2022-12-14T00:34:38.462Z,14.6
2022-12-14T00:35:40.939Z,14.6
2022-12-14T00:36:43.431Z,14.6
2022-12-14T00:38:50.886Z,14.6
2022-12-14T00:39:53.105Z,14.6
2022-12-14T00:40:55.350Z,14.6
2022-12-14T00:41:57.828Z,14.7
2022-12-14T00:43:00.320Z,14.7
2022-12-14T00:44:02.516Z,14.6
2022-12-14T00:45:04.209Z,14.7
2022-12-14T00:46:06.643Z,14.7
2022-12-14T00:47:09.386Z,14.6
2022-12-14T00:48:11.864Z,14.6
2022-12-14T00:49:14.360Z,14.6
2022-12-14T00:50:16.828Z,14.7
2022-12-14T00:51:18.749Z,14.6
2022-12-14T00:52:20.929Z,14.6
2022-12-14T00:53:23.430Z,14.6
2022-12-14T00:54:25.350Z,14.7
2022-12-14T00:55:27.854Z,14.6
2022-12-14T00:56:30.359Z,14.6
2022-12-14T00:57:32.862Z,14.6
2022-12-14T00:58:35.328Z,14.6
2022-12-14T00:59:37.807Z,14.7
2022-12-14T01:00:40.302Z,14.7
2022-12-14T01:01:42.823Z,14.6
2022-12-14T01:02:50.294Z,14.7
2022-12-14T01:03:52.330Z,14.7
2022-12-14T01:04:54.775Z,14.7
2022-12-14T01:05:56.710Z,14.7
2022-12-14T01:06:59.214Z,14.8
2022-12-14T01:08:01.421Z,14.7
2022-12-14T01:09:03.660Z,14.7
2022-12-14T01:10:05.891Z,14.7
2022-12-14T01:11:08.118Z,14.7
2022-12-14T01:12:10.619Z,14.7
2022-12-14T01:13:12.826Z,14.7
2022-12-14T01:14:15.292Z,14.7
2022-12-14T01:15:17.784Z,14.6
2022-12-14T01:16:20.395Z,14.7
2022-12-14T01:17:23.143Z,14.7
2022-12-14T01:18:25.390Z,14.6
2022-12-14T01:19:27.878Z,14.7
2022-12-14T01:20:30.347Z,14.7
2022-12-14T01:21:32.551Z,14.6
2022-12-14T01:22:34.790Z,14.7
2022-12-14T01:23:37.269Z,14.7
2022-12-14T01:24:39.751Z,14.7
2022-12-14T01:25:41.962Z,14.7
2022-12-14T01:26:44.161Z,14.7
2022-12-14T01:27:46.374Z,14.7
2022-12-14T01:28:48.559Z,14.7
2022-12-14T01:29:50.770Z,14.7
2022-12-14T01:30:52.523Z,14.8
2022-12-14T01:31:54.982Z,14.8
2022-12-14T01:32:57.192Z,14.8
2022-12-14T01:33:59.739Z,14.8
2022-12-14T01:35:01.926Z,14.7
2022-12-14T01:36:03.845Z,14.7
2022-12-14T01:37:05.756Z,14.7
2022-12-14T01:38:08.239Z,14.8
2022-12-14T01:39:10.156Z,14.8
2022-12-14T01:40:12.634Z,14.7
2022-12-14T01:41:14.838Z,14.8
2022-12-14T01:42:17.051Z,14.7
2022-12-14T01:43:19.006Z,14.8
2022-12-14T01:44:21.486Z,14.7
2022-12-14T01:45:23.963Z,14.8
2022-12-14T01:46:26.541Z,14.8
2022-12-14T01:47:29.198Z,14.8
2022-12-14T01:48:31.423Z,14.7
2022-12-14T01:49:33.957Z,14.7
2022-12-14T01:50:36.439Z,14.7
2022-12-14T01:51:38.912Z,14.7
2022-12-14T01:52:41.392Z,14.8
2022-12-14T01:53:43.880Z,14.7
2022-12-14T01:55:51.044Z,14.7
2022-12-14T01:56:53.261Z,14.7
2022-12-14T01:57:55.744Z,14.8
2022-12-14T01:58:57.962Z,14.7
2022-12-14T02:01:05.428Z,14.8
2022-12-14T02:02:07.877Z,14.8
2022-12-14T02:03:11.195Z,14.7
2022-12-14T02:04:13.737Z,14.8
2022-12-14T02:05:15.999Z,14.7
2022-12-14T02:06:18.196Z,14.7
2022-12-14T02:07:20.708Z,14.8
2022-12-14T02:08:22.931Z,14.8
2022-12-14T02:09:25.415Z,14.8
2022-12-14T02:10:27.620Z,14.8
2022-12-14T02:11:29.833Z,14.8
2022-12-14T02:12:32.302Z,14.7
2022-12-14T02:13:34.547Z,14.8
2022-12-14T02:14:36.489Z,14.8
2022-12-14T02:15:38.996Z,14.8
2022-12-14T02:16:41.337Z,14.8
2022-12-14T02:17:43.528Z,14.7
2022-12-14T02:18:46.062Z,14.8
2022-12-14T02:19:48.283Z,14.8
2022-12-14T02:20:50.790Z,14.8
2022-12-14T02:21:53.267Z,14.7
2022-12-14T02:22:55.461Z,14.8
2022-12-14T02:23:57.950Z,14.8
2022-12-14T02:25:00.429Z,14.8
2022-12-14T02:26:02.921Z,14.7
2022-12-14T02:27:05.399Z,14.8
2022-12-14T02:28:07.896Z,14.8
2022-12-14T02:29:10.366Z,14.8
2022-12-14T02:30:12.886Z,14.8
2022-12-14T02:31:15.500Z,14.8
2022-12-14T02:32:17.649Z,14.8
2022-12-14T02:33:19.864Z,14.8
2022-12-14T02:34:22.382Z,14.7
2022-12-14T02:35:24.389Z,14.8
2022-12-14T02:36:26.914Z,14.8
2022-12-14T02:37:29.114Z,14.8
2022-12-14T02:38:31.331Z,14.8
2022-12-14T02:39:33.809Z,14.8
2022-12-14T02:40:36.295Z,14.8
2022-12-14T02:41:38.604Z,14.8
2022-12-14T02:42:40.814Z,14.8
2022-12-14T02:43:43.800Z,14.8
2022-12-14T02:44:49.276Z,14.8
2022-12-14T02:45:51.939Z,14.8
2022-12-14T02:46:54.483Z,14.8
2022-12-14T02:47:56.922Z,14.8
2022-12-14T02:48:58.833Z,14.8
2022-12-14T02:50:01.030Z,14.8
2022-12-14T02:51:03.551Z,14.8
2022-12-14T02:52:06.269Z,14.9
2022-12-14T02:53:08.508Z,14.8
2022-12-14T02:54:10.427Z,14.8
2022-12-14T02:55:12.922Z,14.9
2022-12-14T02:56:15.134Z,14.8
2022-12-14T02:57:17.320Z,14.8
2022-12-14T02:58:19.505Z,14.8
2022-12-14T02:59:22.011Z,14.8
2022-12-14T03:00:24.451Z,14.8
2022-12-14T03:01:27.126Z,14.8
2022-12-14T03:02:30.336Z,14.8
2022-12-14T03:03:33.256Z,14.8
2022-12-14T03:04:35.886Z,14.8
2022-12-14T03:05:38.653Z,14.8
2022-12-14T03:06:41.268Z,14.8
2022-12-14T03:07:43.515Z,14.9
2022-12-14T03:08:49.466Z,14.9
2022-12-14T03:09:51.662Z,14.9
2022-12-14T03:10:54.136Z,14.9
2022-12-14T03:11:56.352Z,14.9
2022-12-14T03:12:58.852Z,14.8
2022-12-14T03:14:01.336Z,14.8
2022-12-14T03:15:03.250Z,14.8
2022-12-14T03:16:05.846Z,14.8
2022-12-14T03:17:08.520Z,14.9
2022-12-14T03:18:11.011Z,14.8
2022-12-14T03:19:13.509Z,14.8
2022-12-14T03:20:15.986Z,14.8
2022-12-14T03:21:18.221Z,14.9
2022-12-14T03:22:20.708Z,14.8
2022-12-14T03:23:23.253Z,14.8
2022-12-14T03:24:27.037Z,14.9
2022-12-14T03:25:29.245Z,14.9
2022-12-14T03:26:31.439Z,14.9
2022-12-14T03:27:33.644Z,15
2022-12-14T03:28:50.498Z,14.9
2022-12-14T03:29:52.709Z,14.9
2022-12-14T03:32:00.049Z,14.9
2022-12-14T03:33:02.704Z,14.8
2022-12-14T03:34:04.641Z,15
2022-12-14T03:35:11.098Z,14.9
2022-12-14T03:36:13.301Z,15
2022-12-14T03:37:15.535Z,14.8
2022-12-14T03:38:17.763Z,14.8
2022-12-14T03:39:20.009Z,14.8
2022-12-14T03:40:22.213Z,14.9
2022-12-14T03:41:24.710Z,14.8
2022-12-14T03:42:27.180Z,15
2022-12-14T03:43:30.668Z,14.9
2022-12-14T03:44:33.047Z,14.8
2022-12-14T03:45:35.736Z,14.9
2022-12-14T03:46:38.199Z,14.9
2022-12-14T03:47:40.757Z,14.8
2022-12-14T03:48:43.304Z,14.8
2022-12-14T03:50:50.253Z,14.9
2022-12-14T03:51:52.739Z,14.9
2022-12-14T03:52:55.234Z,14.9
2022-12-14T03:53:57.774Z,14.8
2022-12-14T03:55:00.367Z,14.9
2022-12-14T03:56:02.578Z,15
2022-12-14T03:57:04.789Z,14.9
2022-12-14T03:58:06.991Z,14.9
2022-12-14T03:59:09.479Z,14.9
2022-12-14T04:00:11.952Z,14.8
2022-12-14T04:01:14.182Z,14.9
2022-12-14T04:02:17.173Z,14.9
2022-12-14T04:03:20.024Z,15.1
2022-12-14T04:04:22.804Z,14.9
2022-12-14T04:05:25.023Z,15
2022-12-14T04:06:27.211Z,14.9
2022-12-14T04:07:29.160Z,14.8
2022-12-14T04:08:31.384Z,14.9
2022-12-14T04:09:33.921Z,14.9
2022-12-14T04:10:36.439Z,14.8
2022-12-14T04:11:38.677Z,14.8
2022-12-14T04:12:43.359Z,14.9
2022-12-14T04:14:51.683Z,14.9
2022-12-14T04:15:53.886Z,14.9
2022-12-14T04:16:56.471Z,14.9
2022-12-14T04:17:59.024Z,14.9
2022-12-14T04:19:01.574Z,14.8
2022-12-14T04:20:03.812Z,14.8
2022-12-14T04:21:06.287Z,14.8
2022-12-14T04:22:08.490Z,14.8
2022-12-14T04:23:10.675Z,14.8
2022-12-14T04:24:12.898Z,14.8
2022-12-14T04:25:15.413Z,14.8
2022-12-14T04:26:17.641Z,14.8
2022-12-14T04:27:20.117Z,14.8
2022-12-14T04:28:22.310Z,14.8
2022-12-14T04:29:24.804Z,14.8
2022-12-14T04:30:27.001Z,14.8
2022-12-14T04:31:29.439Z,14.7
2022-12-14T04:32:32.057Z,14.8
2022-12-14T04:33:34.469Z,14.8
2022-12-14T04:34:36.673Z,14.7
2022-12-14T04:35:39.175Z,14.8
2022-12-14T04:36:41.370Z,14.8
2022-12-14T04:37:43.850Z,14.8
2022-12-14T04:38:50.243Z,14.9
2022-12-14T04:39:52.622Z,14.7
2022-12-14T04:40:54.930Z,14.8
2022-12-14T04:41:57.480Z,14.7
2022-12-14T04:42:59.996Z,14.8
2022-12-14T04:44:02.509Z,14.7
2022-12-14T04:45:05.020Z,14.7
2022-12-14T04:46:07.712Z,14.7
2022-12-14T04:47:10.532Z,14.7
2022-12-14T04:48:12.741Z,14.8
2022-12-14T04:49:14.666Z,14.8
2022-12-14T04:50:17.167Z,14.8
2022-12-14T04:51:19.778Z,14.7
2022-12-14T04:52:22.249Z,14.7
2022-12-14T04:53:24.881Z,14.7
2022-12-14T04:54:29.285Z,14.7
2022-12-14T04:55:31.790Z,14.7
2022-12-14T04:56:34.026Z,14.7
2022-12-14T04:57:36.269Z,14.7
2022-12-14T04:58:38.465Z,14.8
2022-12-14T04:59:40.940Z,14.7
2022-12-14T05:00:43.419Z,14.7
2022-12-14T05:02:50.918Z,14.7
2022-12-14T05:03:53.462Z,14.7
2022-12-14T05:04:55.743Z,14.7
2022-12-14T05:05:57.971Z,14.7
2022-12-14T05:07:00.237Z,14.7
2022-12-14T05:08:02.709Z,14.7
2022-12-14T05:09:04.921Z,14.7
2022-12-14T05:10:07.394Z,14.7
2022-12-14T05:12:14.626Z,14.8
2022-12-14T05:13:16.875Z,14.7
2022-12-14T05:14:19.085Z,14.7
2022-12-14T05:15:21.557Z,14.7
2022-12-14T05:16:24.259Z,14.7
2022-12-14T05:17:26.733Z,14.7
2022-12-14T05:18:29.236Z,14.7
2022-12-14T05:19:31.710Z,14.7
2022-12-14T05:20:33.341Z,14.7
2022-12-14T05:21:35.817Z,14.7
2022-12-14T05:22:38.055Z,14.7
2022-12-14T05:23:39.985Z,14.7
2022-12-14T05:24:42.465Z,14.7
2022-12-14T05:25:44.654Z,14.7
2022-12-14T05:26:49.851Z,14.7
2022-12-14T05:27:52.078Z,14.7
2022-12-14T05:28:54.318Z,14.7
2022-12-14T05:29:55.946Z,14.7
2022-12-14T05:30:58.531Z,14.7
2022-12-14T05:32:00.873Z,14.6
2022-12-14T05:33:02.537Z,14.7
2022-12-14T05:34:04.740Z,14.7
2022-12-14T05:35:07.275Z,14.7
2022-12-14T05:36:09.471Z,14.8
2022-12-14T05:38:16.669Z,14.6
2022-12-14T05:39:18.618Z,14.8
2022-12-14T05:40:21.099Z,14.7
2022-12-14T05:41:23.581Z,14.6
2022-12-14T05:42:26.058Z,14.7
2022-12-14T05:43:29.574Z,14.7
2022-12-14T05:44:33.030Z,14.7
2022-12-14T05:45:35.511Z,14.7
2022-12-14T05:46:38.238Z,14.7
2022-12-14T05:47:40.706Z,14.7
2022-12-14T05:50:52.576Z,14.6
2022-12-14T05:51:55.065Z,14.6
2022-12-14T05:52:56.718Z,14.7
2022-12-14T05:53:58.929Z,14.7
2022-12-14T05:56:06.404Z,14.7
2022-12-14T05:57:08.888Z,14.7
2022-12-14T05:58:11.376Z,14.7
2022-12-14T05:59:13.601Z,14.6
2022-12-14T06:00:15.876Z,14.7
2022-12-14T06:01:20.364Z,14.7
2022-12-14T06:02:23.341Z,14.7
2022-12-14T06:03:27.402Z,14.7
2022-12-14T06:04:31.620Z,14.7
2022-12-14T06:05:34.303Z,14.6
2022-12-14T06:06:36.824Z,14.7
2022-12-14T06:07:38.861Z,14.7
2022-12-14T06:08:41.334Z,14.7
2022-12-14T06:09:43.280Z,14.7
2022-12-14T06:10:45.489Z,14.7
2022-12-14T06:11:47.688Z,14.7
2022-12-14T06:12:49.896Z,14.6
2022-12-14T06:13:52.127Z,14.6
2022-12-14T06:14:54.735Z,14.7
2022-12-14T06:15:57.374Z,14.6
2022-12-14T06:16:59.858Z,14.7
2022-12-14T06:18:01.818Z,14.6
2022-12-14T06:19:04.095Z,14.7
2022-12-14T06:20:06.336Z,14.7
2022-12-14T06:21:08.544Z,14.7
2022-12-14T06:22:11.019Z,14.7
2022-12-14T06:23:13.236Z,14.6
2022-12-14T06:24:15.469Z,14.7
2022-12-14T06:25:17.980Z,14.7
2022-12-14T06:26:20.457Z,14.7
2022-12-14T06:27:22.681Z,14.7
2022-12-14T06:28:24.608Z,14.7
2022-12-14T06:29:27.091Z,14.7
2022-12-14T06:30:29.330Z,14.6
2022-12-14T06:31:31.781Z,14.7
2022-12-14T06:32:34.591Z,14.6
2022-12-14T06:33:37.076Z,14.6
2022-12-14T06:35:44.260Z,14.6
2022-12-14T06:36:46.176Z,14.7
2022-12-14T06:37:49.323Z,14.6
2022-12-14T06:38:51.807Z,14.6
2022-12-14T06:39:55.201Z,14.7
2022-12-14T06:40:57.702Z,14.6
2022-12-14T06:41:59.926Z,14.7
2022-12-14T06:43:02.161Z,14.7
2022-12-14T06:44:04.395Z,14.6
2022-12-14T06:45:06.892Z,14.6
2022-12-14T06:47:14.398Z,14.6
2022-12-14T06:48:17.027Z,14.7
2022-12-14T06:49:19.504Z,14.7
2022-12-14T06:50:22.012Z,14.6
2022-12-14T06:51:23.935Z,14.6
2022-12-14T06:52:27.748Z,14.6
2022-12-14T06:53:30.927Z,14.7
2022-12-14T06:54:33.111Z,14.7
2022-12-14T06:55:35.340Z,14.6
2022-12-14T06:56:37.005Z,14.6
2022-12-14T06:57:39.486Z,14.7
2022-12-14T06:58:41.687Z,14.6
2022-12-14T06:59:43.900Z,14.6
2022-12-14T07:00:45.831Z,14.6
2022-12-14T07:02:53.836Z,14.7
2022-12-14T07:03:57.160Z,14.6
2022-12-14T07:04:59.372Z,14.7
2022-12-14T07:06:01.316Z,14.6
2022-12-14T07:07:03.810Z,14.7
2022-12-14T07:08:06.314Z,14.6
2022-12-14T07:09:08.531Z,14.7
2022-12-14T07:10:10.750Z,14.6
2022-12-14T07:11:13.254Z,14.6
2022-12-14T07:12:15.516Z,14.6
2022-12-14T07:13:18.024Z,14.5
2022-12-14T07:14:20.228Z,14.6
2022-12-14T07:15:22.707Z,14.6
2022-12-14T07:16:25.046Z,14.7
2022-12-14T07:17:27.159Z,14.7
2022-12-14T07:18:29.638Z,14.7
2022-12-14T07:19:32.195Z,14.7
2022-12-14T07:20:34.665Z,14.7
2022-12-14T07:21:36.608Z,14.6
2022-12-14T07:22:38.826Z,14.6
2022-12-14T07:23:41.012Z,14.6
2022-12-14T07:24:43.485Z,14.6
2022-12-14T07:26:50.672Z,14.6
2022-12-14T07:27:52.610Z,14.7
2022-12-14T07:28:55.114Z,14.6
2022-12-14T07:29:57.336Z,14.5
2022-12-14T07:30:59.991Z,14.6
2022-12-14T07:32:02.210Z,14.6
2022-12-14T07:33:04.866Z,14.6
2022-12-14T07:34:06.833Z,14.7
2022-12-14T07:36:14.348Z,14.6
2022-12-14T07:37:16.919Z,14.7
2022-12-14T07:38:19.399Z,14.6
2022-12-14T07:39:21.599Z,14.6
2022-12-14T07:40:23.810Z,14.7
2022-12-14T07:41:26.286Z,14.6
2022-12-14T07:42:28.481Z,14.6
2022-12-14T07:43:31.496Z,14.6
2022-12-14T07:44:33.712Z,14.7
2022-12-14T07:45:36.191Z,14.6
2022-12-14T07:46:38.900Z,14.7
2022-12-14T07:47:41.625Z,14.6
2022-12-14T07:48:43.878Z,14.6
2022-12-14T07:50:50.755Z,14.6
2022-12-14T07:51:53.306Z,14.6
2022-12-14T07:52:55.791Z,14.6
2022-12-14T07:53:58.276Z,14.6
2022-12-14T07:55:00.776Z,14.6
2022-12-14T07:56:03.540Z,14.5
2022-12-14T07:57:06.218Z,14.6
2022-12-14T07:58:08.439Z,14.6
2022-12-14T07:59:10.727Z,14.6
2022-12-14T08:00:12.910Z,14.6
2022-12-14T08:01:15.246Z,14.6
2022-12-14T08:02:18.210Z,14.6
2022-12-14T08:03:21.247Z,14.6
2022-12-14T08:04:23.624Z,14.6
2022-12-14T08:05:26.139Z,14.6
2022-12-14T08:06:28.339Z,14.6
2022-12-14T08:07:30.878Z,14.7
2022-12-14T08:08:33.378Z,14.6
2022-12-14T08:09:35.867Z,14.6
2022-12-14T08:11:43.319Z,14.6
2022-12-14T08:12:45.805Z,14.7
2022-12-14T08:13:48.033Z,14.5
2022-12-14T08:14:50.498Z,14.6
2022-12-14T08:15:53.135Z,14.6
2022-12-14T08:16:55.501Z,14.7
2022-12-14T08:17:57.480Z,14.6
2022-12-14T08:18:59.662Z,14.6
2022-12-14T08:20:02.211Z,14.7
2022-12-14T08:21:04.448Z,14.6
2022-12-14T08:22:06.699Z,14.7
2022-12-14T08:23:09.279Z,14.6
2022-12-14T08:24:11.780Z,14.5
2022-12-14T08:25:15.358Z,14.6
2022-12-14T08:26:17.898Z,14.6
2022-12-14T08:27:20.384Z,14.6
2022-12-14T08:28:22.119Z,14.6
2022-12-14T08:29:24.359Z,14.5
2022-12-14T08:30:26.623Z,14.5
2022-12-14T08:31:29.488Z,14.6
2022-12-14T08:33:37.463Z,14.6
2022-12-14T08:34:39.661Z,14.6
2022-12-14T08:35:42.056Z,14.6
2022-12-14T08:36:44.268Z,14.5
2022-12-14T08:37:48.239Z,14.6
2022-12-14T08:38:50.776Z,14.6
2022-12-14T08:39:54.451Z,14.6
2022-12-14T08:40:56.964Z,14.6
2022-12-14T08:41:59.473Z,14.5
2022-12-14T08:43:01.400Z,14.6
2022-12-14T08:44:03.924Z,14.7
2022-12-14T08:45:06.166Z,14.7
2022-12-14T08:46:07.861Z,14.6
2022-12-14T08:47:09.837Z,14.5
2022-12-14T08:48:12.284Z,14.7
2022-12-14T08:49:14.519Z,14.5
2022-12-14T08:50:16.484Z,14.6
2022-12-14T08:51:18.696Z,14.6
2022-12-14T08:52:21.188Z,14.6
2022-12-14T08:53:23.366Z,14.5
2022-12-14T08:54:25.870Z,14.6
2022-12-14T08:56:33.357Z,14.6
2022-12-14T08:57:35.567Z,14.6
2022-12-14T08:58:37.782Z,14.5
2022-12-14T09:00:45.546Z,14.6
2022-12-14T09:01:48.377Z,14.6
2022-12-14T09:02:51.646Z,14.6
2022-12-14T09:03:54.781Z,14.6
2022-12-14T09:04:57.029Z,14.7
2022-12-14T09:05:59.240Z,14.5
2022-12-14T09:07:00.907Z,14.6
2022-12-14T09:08:03.119Z,14.7
2022-12-14T09:09:04.821Z,14.5
2022-12-14T09:10:10.832Z,14.6
2022-12-14T09:11:13.313Z,14.6
2022-12-14T09:12:15.553Z,14.6
2022-12-14T09:13:18.065Z,14.6
2022-12-14T09:14:20.292Z,14.6
2022-12-14T09:15:22.497Z,14.6
2022-12-14T09:16:24.585Z,14.6
2022-12-14T09:17:27.444Z,14.5
2022-12-14T09:18:30.899Z,14.5
2022-12-14T09:19:35.630Z,14.5
2022-12-14T09:20:38.130Z,14.6
2022-12-14T09:21:40.186Z,14.6
2022-12-14T09:22:42.967Z,14.6
2022-12-14T09:23:45.453Z,14.5
2022-12-14T09:24:47.668Z,14.6
2022-12-14T09:25:49.616Z,14.5
2022-12-14T09:26:52.112Z,14.6
2022-12-14T09:27:54.592Z,14.5
2022-12-14T09:28:56.552Z,14.6
2022-12-14T09:29:59.116Z,14.5
2022-12-14T09:31:01.302Z,14.7
2022-12-14T09:32:03.955Z,14.6
2022-12-14T09:33:06.457Z,14.6
2022-12-14T09:34:08.672Z,14.6
2022-12-14T09:35:10.866Z,14.6
2022-12-14T09:36:13.363Z,14.5
2022-12-14T09:37:15.865Z,14.6
2022-12-14T09:38:18.080Z,14.6
2022-12-14T09:39:20.003Z,14.6
2022-12-14T09:40:22.218Z,14.6
2022-12-14T09:41:24.727Z,14.6
2022-12-14T09:42:27.045Z,14.6
2022-12-14T09:43:30.330Z,14.6
2022-12-14T09:44:36.768Z,14.5
2022-12-14T09:45:39.398Z,14.5
2022-12-14T09:46:42.105Z,14.5
2022-12-14T09:47:44.608Z,14.5
2022-12-14T09:48:46.829Z,14.5
2022-12-14T09:49:49.357Z,14.6
2022-12-14T09:50:51.398Z,14.5
2022-12-14T09:51:54.282Z,14.6
2022-12-14T09:52:56.813Z,14.6
2022-12-14T09:55:03.988Z,14.6
2022-12-14T09:56:06.249Z,14.6
2022-12-14T09:57:08.503Z,14.5
2022-12-14T09:58:10.740Z,14.6
2022-12-14T09:59:12.929Z,14.5
2022-12-14T10:00:15.423Z,14.5
2022-12-14T10:01:17.896Z,14.6
2022-12-14T10:03:26.438Z,14.6
2022-12-14T10:04:31.634Z,14.5
2022-12-14T10:05:33.838Z,14.6
2022-12-14T10:06:35.213Z,14.7
2022-12-14T10:07:37.184Z,14.6
2022-12-14T10:08:38.863Z,14.5
2022-12-14T10:09:41.645Z,14.6
2022-12-14T10:10:44.151Z,14.6
2022-12-14T10:11:46.351Z,14.5
2022-12-14T10:12:49.127Z,14.5
2022-12-14T10:13:51.375Z,14.6
2022-12-14T10:14:53.870Z,14.5
2022-12-14T10:15:56.104Z,14.5
2022-12-14T10:16:58.150Z,14.6
2022-12-14T10:18:00.970Z,14.6
2022-12-14T10:19:04.238Z,14.6
2022-12-14T10:20:08.642Z,14.7
2022-12-14T10:21:10.853Z,14.6
2022-12-14T10:22:12.827Z,14.5
2022-12-14T10:24:20.021Z,14.6
2022-12-14T10:25:22.235Z,14.5
2022-12-14T10:26:24.447Z,14.7
2022-12-14T10:27:26.931Z,14.6
2022-12-14T10:28:33.817Z,14.4
2022-12-14T10:29:36.111Z,14.5
2022-12-14T10:30:38.361Z,14.6
2022-12-14T10:31:40.402Z,14.6
2022-12-14T10:32:42.959Z,14.6
2022-12-14T10:33:45.174Z,14.6
2022-12-14T10:34:47.107Z,14.5
2022-12-14T10:35:49.597Z,14.5
2022-12-14T10:36:52.111Z,14.6
2022-12-14T10:37:56.409Z,14.5
2022-12-14T10:38:58.647Z,14.6
2022-12-14T10:40:02.499Z,14.5
2022-12-14T10:41:05.861Z,14.5
2022-12-14T10:42:08.381Z,14.5
2022-12-14T10:43:10.883Z,14.5
2022-12-14T10:44:13.374Z,14.6
2022-12-14T10:46:21.041Z,14.6
2022-12-14T10:47:23.532Z,14.6
2022-12-14T10:48:26.180Z,14.6
2022-12-14T10:49:29.932Z,14.5
2022-12-14T10:50:32.479Z,14.5
2022-12-14T10:51:34.696Z,14.5
2022-12-14T10:52:36.926Z,14.5
2022-12-14T10:54:44.131Z,14.5
2022-12-14T10:55:46.359Z,14.5
2022-12-14T10:56:50.625Z,14.5
2022-12-14T10:57:53.592Z,14.5
2022-12-14T10:58:56.099Z,14.5
2022-12-14T11:01:03.480Z,14.6
2022-12-14T11:02:06.756Z,14.6
2022-12-14T11:03:10.598Z,14.5
2022-12-14T11:04:13.099Z,14.6
2022-12-14T11:05:15.425Z,14.5
2022-12-14T11:06:17.570Z,14.6
2022-12-14T11:07:19.794Z,14.6
2022-12-14T11:08:22.275Z,14.5
2022-12-14T11:09:24.509Z,14.6
2022-12-14T11:10:26.994Z,14.5
2022-12-14T11:11:29.317Z,14.6
2022-12-14T11:12:31.485Z,14.6
2022-12-14T11:13:33.707Z,14.5
2022-12-14T11:14:35.599Z,14.4
2022-12-14T11:15:38.137Z,14.5
2022-12-14T11:16:40.719Z,14.6
2022-12-14T11:17:44.069Z,14.5
2022-12-14T11:18:47.304Z,14.5
2022-12-14T11:19:49.805Z,14.5
2022-12-14T11:20:52.287Z,14.5
2022-12-14T11:21:54.776Z,14.4
2022-12-14T11:22:57.004Z,14.5
2022-12-14T11:23:59.538Z,14.6
2022-12-14T11:25:02.038Z,14.6
2022-12-14T11:26:04.544Z,14.5
2022-12-14T11:27:07.039Z,14.6
2022-12-14T11:28:09.255Z,14.4
2022-12-14T11:29:11.743Z,14.5
2022-12-14T11:30:13.534Z,14.6
2022-12-14T11:31:16.175Z,14.5
2022-12-14T11:32:18.443Z,14.5
2022-12-14T11:33:20.918Z,14.6
2022-12-14T11:34:23.144Z,14.6
2022-12-14T11:35:25.635Z,14.6
2022-12-14T11:36:28.141Z,14.5
2022-12-14T11:37:30.350Z,14.6
2022-12-14T11:38:33.605Z,14.5
2022-12-14T11:39:35.894Z,14.5
2022-12-14T11:40:38.599Z,14.5
2022-12-14T11:41:40.814Z,14.6
2022-12-14T11:42:43.308Z,14.5
2022-12-14T11:43:45.523Z,14.5
2022-12-14T11:44:47.750Z,14.5
2022-12-14T11:45:50.332Z,14.6
2022-12-14T11:46:53.222Z,14.5
2022-12-14T11:47:55.839Z,14.5
2022-12-14T11:48:58.054Z,14.5
2022-12-14T11:50:00.240Z,14.5
2022-12-14T11:51:02.737Z,14.5
2022-12-14T11:52:04.389Z,14.5
2022-12-14T11:54:11.896Z,14.5
2022-12-14T11:55:14.110Z,14.5
2022-12-14T11:56:21.089Z,14.5
2022-12-14T11:57:23.591Z,14.5
2022-12-14T11:58:26.236Z,14.5
2022-12-14T11:59:29.198Z,14.6
2022-12-14T12:00:31.743Z,14.6
2022-12-14T12:01:34.085Z,14.5
2022-12-14T12:02:37.139Z,14.4
2022-12-14T12:03:39.913Z,14.5
2022-12-14T12:04:42.434Z,14.5
2022-12-14T12:05:44.849Z,14.4
2022-12-14T12:06:46.498Z,14.6
2022-12-14T12:07:48.716Z,14.4
2022-12-14T12:08:50.975Z,14.5
2022-12-14T12:09:52.983Z,14.6
2022-12-14T12:10:55.465Z,14.5
2022-12-14T12:12:01.279Z,14.5
2022-12-14T12:13:04.068Z,14.5
2022-12-14T12:14:06.320Z,14.5
2022-12-14T12:15:08.270Z,14.6
2022-12-14T12:16:10.650Z,14.6
2022-12-14T12:17:13.177Z,14.6
2022-12-14T12:18:15.114Z,14.5
2022-12-14T12:19:17.323Z,14.4
2022-12-14T12:20:19.284Z,14.5
2022-12-14T12:21:21.762Z,14.5
2022-12-14T12:22:23.987Z,14.5
2022-12-14T12:23:27.039Z,14.5
2022-12-14T12:24:31.192Z,14.5
2022-12-14T12:26:38.647Z,14.5
2022-12-14T12:27:41.155Z,14.6
2022-12-14T12:28:43.634Z,14.6
2022-12-14T12:29:45.610Z,14.6
2022-12-14T12:30:47.963Z,14.4
2022-12-14T12:31:50.201Z,14.6
2022-12-14T12:32:52.704Z,14.5
2022-12-14T12:33:55.184Z,14.5
2022-12-14T12:34:57.390Z,14.5
2022-12-14T12:36:03.350Z,14.5
2022-12-14T12:38:10.250Z,14.5
2022-12-14T12:39:12.751Z,14.5
2022-12-14T12:40:14.970Z,14.5
2022-12-14T12:41:17.356Z,14.5
2022-12-14T12:42:19.847Z,14.5
2022-12-14T12:43:22.094Z,14.5
2022-12-14T12:44:24.595Z,14.5
2022-12-14T12:45:27.090Z,14.5
2022-12-14T12:46:29.416Z,14.5
2022-12-14T12:48:36.887Z,14.5
2022-12-14T12:49:39.373Z,14.5
2022-12-14T12:50:41.595Z,14.5
2022-12-14T12:51:48.327Z,14.5
2022-12-14T12:52:50.530Z,14.5
2022-12-14T12:53:52.440Z,14.4
2022-12-14T12:54:54.651Z,14.6
2022-12-14T12:55:56.874Z,14.5
2022-12-14T12:56:58.809Z,14.5
2022-12-14T12:58:00.783Z,14.5
2022-12-14T12:59:03.282Z,14.6
2022-12-14T13:00:05.200Z,14.5
2022-12-14T13:01:07.092Z,14.5
2022-12-14T13:02:09.556Z,14.5
2022-12-14T13:03:12.408Z,14.5
2022-12-14T13:04:15.336Z,14.5
2022-12-14T13:06:22.806Z,14.5
2022-12-14T13:07:25.305Z,14.5
2022-12-14T13:08:28.764Z,14.5
2022-12-14T13:09:33.296Z,14.5
2022-12-14T13:10:39.240Z,14.5
2022-12-14T13:11:41.591Z,14.5
2022-12-14T13:13:49.062Z,14.5
2022-12-14T13:14:51.281Z,14.5
2022-12-14T13:15:53.920Z,14.5
2022-12-14T13:16:56.118Z,14.6
2022-12-14T13:17:58.072Z,14.5
2022-12-14T13:20:05.238Z,14.4
2022-12-14T13:21:07.469Z,14.7
2022-12-14T13:24:19.679Z,14.5
2022-12-14T13:25:22.176Z,14.5
2022-12-14T13:27:29.675Z,14.4
2022-12-14T13:28:33.115Z,14.4
2022-12-14T13:29:35.674Z,14.4
2022-12-14T13:30:38.171Z,14.5
2022-12-14T13:31:40.829Z,14.7
2022-12-14T13:32:43.288Z,14.4
2022-12-14T13:33:45.340Z,14.5
2022-12-14T13:34:51.085Z,14.6
2022-12-14T13:35:53.026Z,14.5
2022-12-14T13:36:55.265Z,14.5
2022-12-14T13:37:57.494Z,14.5
2022-12-14T13:38:59.709Z,14.6
2022-12-14T13:40:01.698Z,14.5
2022-12-14T13:41:04.225Z,14.6
2022-12-14T13:42:06.438Z,14.5
2022-12-14T13:43:08.676Z,14.5
2022-12-14T13:44:10.875Z,14.5
2022-12-14T13:45:13.129Z,14.5
2022-12-14T13:46:15.731Z,14.6
2022-12-14T13:47:18.392Z,14.5
2022-12-14T13:48:20.731Z,14.6
2022-12-14T13:49:23.387Z,14.6
2022-12-14T13:51:30.654Z,14.6
2022-12-14T13:52:32.865Z,14.5
2022-12-14T13:53:35.411Z,14.5
2022-12-14T13:54:37.812Z,14.5
2022-12-14T13:55:40.096Z,14.5
2022-12-14T13:56:42.341Z,14.5
2022-12-14T13:57:45.611Z,14.5
2022-12-14T13:58:50.817Z,14.4
2022-12-14T13:59:53.083Z,14.5
2022-12-14T14:00:55.703Z,14.6
2022-12-14T14:01:58.276Z,14.6
2022-12-14T14:03:01.326Z,14.6
2022-12-14T14:04:04.722Z,14.5
2022-12-14T14:05:07.482Z,14.5
2022-12-14T14:06:09.710Z,14.6
2022-12-14T14:07:11.945Z,14.6
2022-12-14T14:08:14.439Z,14.5
2022-12-14T14:09:16.988Z,14.5
2022-12-14T14:10:19.644Z,14.5
2022-12-14T14:12:27.154Z,14.4
2022-12-14T14:13:29.668Z,14.5
2022-12-14T14:14:31.901Z,14.5
2022-12-14T14:15:34.437Z,14.5
2022-12-14T14:16:36.837Z,14.5
2022-12-14T14:17:38.984Z,14.5
2022-12-14T14:18:40.939Z,14.6
2022-12-14T14:20:48.852Z,14.6
2022-12-14T14:23:00.844Z,14.6
2022-12-14T14:24:03.061Z,14.6
2022-12-14T14:26:11.049Z,14.5
2022-12-14T14:27:13.698Z,14.6
2022-12-14T14:29:21.074Z,14.6
2022-12-14T14:30:23.624Z,14.5
2022-12-14T14:31:26.296Z,14.5
2022-12-14T14:32:28.844Z,14.4
2022-12-14T14:34:36.076Z,14.5
2022-12-14T14:35:37.739Z,14.6
2022-12-14T14:36:40.235Z,14.5
2022-12-14T14:37:42.753Z,14.6
2022-12-14T14:38:50.630Z,14.4
2022-12-14T14:42:03.119Z,14.6
2022-12-14T14:43:05.392Z,14.6
2022-12-14T14:44:07.634Z,14.6
2022-12-14T14:45:09.848Z,14.6